sensor_id;sensor_type;location;lat;lon;timestamp;temperature;humidity
56725;DHT22;42608;52.776;6.968;2022-12-24T00:00:17;7.80;99.90
56725;DHT22;42608;52.776;6.968;2022-12-24T00:02:43;7.90;99.90
56725;DHT22;42608;52.776;6.968;2022-12-24T00:05:08;8.00;99.90
56725;DHT22;42608;52.776;6.968;2022-12-24T00:07:35;8.10;99.90
56725;DHT22;42608;52.776;6.968;2022-12-24T00:10:00;8.20;99.90
56725;DHT22;42608;52.776;6.968;2022-12-24T00:12:26;8.30;99.90
56725;DHT22;42608;52.776;6.968;2022-12-24T00:14:52;8.40;99.90
56725;DHT22;42608;52.776;6.968;2022-12-24T00:17:17;8.50;99.90
56725;DHT22;42608;52.776;6.968;2022-12-24T00:19:43;8.60;99.90
56725;DHT22;42608;52.776;6.968;2022-12-24T00:22:09;8.60;99.90
56725;DHT22;42608;52.776;6.968;2022-12-24T00:24:34;8.70;99.90
56725;DHT22;42608;52.776;6.968;2022-12-24T00:27:00;8.80;99.90
56725;DHT22;42608;52.776;6.968;2022-12-24T00:29:25;8.80;99.90
56725;DHT22;42608;52.776;6.968;2022-12-24T00:31:51;8.80;99.90
56725;DHT22;42608;52.776;6.968;2022-12-24T00:34:16;8.80;99.90
56725;DHT22;42608;52.776;6.968;2022-12-24T00:36:42;8.90;99.90
56725;DHT22;42608;52.776;6.968;2022-12-24T00:39:08;8.90;99.90
56725;DHT22;42608;52.776;6.968;2022-12-24T00:41:33;8.90;99.90
56725;DHT22;42608;52.776;6.968;2022-12-24T00:44:03;8.90;99.90
56725;DHT22;42608;52.776;6.968;2022-12-24T00:46:30;8.90;99.90
56725;DHT22;42608;52.776;6.968;2022-12-24T00:48:56;8.90;99.90
56725;DHT22;42608;52.776;6.968;2022-12-24T00:51:22;8.90;99.90
56725;DHT22;42608;52.776;6.968;2022-12-24T00:53:48;8.90;99.90
56725;DHT22;42608;52.776;6.968;2022-12-24T00:56:13;8.90;99.90
56725;DHT22;42608;52.776;6.968;2022-12-24T00:58:39;8.90;99.90
56725;DHT22;42608;52.776;6.968;2022-12-24T01:01:05;8.90;99.90
56725;DHT22;42608;52.776;6.968;2022-12-24T01:03:30;8.90;99.90
56725;DHT22;42608;52.776;6.968;2022-12-24T01:06:12;8.90;99.90
56725;DHT22;42608;52.776;6.968;2022-12-24T01:08:38;8.90;99.90
56725;DHT22;42608;52.776;6.968;2022-12-24T01:11:04;8.90;99.90
56725;DHT22;42608;52.776;6.968;2022-12-24T01:13:30;8.90;99.90
56725;DHT22;42608;52.776;6.968;2022-12-24T01:15:56;8.90;99.90
56725;DHT22;42608;52.776;6.968;2022-12-24T01:18:22;8.90;99.90
56725;DHT22;42608;52.776;6.968;2022-12-24T01:20:57;8.90;99.90
56725;DHT22;42608;52.776;6.968;2022-12-24T01:23:24;8.90;99.90
56725;DHT22;42608;52.776;6.968;2022-12-24T01:25:49;8.90;99.90
56725;DHT22;42608;52.776;6.968;2022-12-24T01:28:15;8.90;99.90
56725;DHT22;42608;52.776;6.968;2022-12-24T01:30:41;9.00;99.90
56725;DHT22;42608;52.776;6.968;2022-12-24T01:33:06;9.00;99.90
56725;DHT22;42608;52.776;6.968;2022-12-24T01:35:32;9.00;99.90
56725;DHT22;42608;52.776;6.968;2022-12-24T01:37:57;9.00;99.90
56725;DHT22;42608;52.776;6.968;2022-12-24T01:40:24;9.00;99.90
56725;DHT22;42608;52.776;6.968;2022-12-24T01:43:19;9.00;99.90
56725;DHT22;42608;52.776;6.968;2022-12-24T01:45:51;9.00;99.90
56725;DHT22;42608;52.776;6.968;2022-12-24T01:50:43;9.00;99.90
56725;DHT22;42608;52.776;6.968;2022-12-24T01:53:09;9.00;99.90
56725;DHT22;42608;52.776;6.968;2022-12-24T01:55:34;9.10;99.90
56725;DHT22;42608;52.776;6.968;2022-12-24T01:58:00;9.00;99.90
56725;DHT22;42608;52.776;6.968;2022-12-24T02:00:27;9.10;99.90
56725;DHT22;42608;52.776;6.968;2022-12-24T02:02:53;9.10;99.90
56725;DHT22;42608;52.776;6.968;2022-12-24T02:07:47;9.10;99.90
56725;DHT22;42608;52.776;6.968;2022-12-24T02:10:13;9.10;99.90
56725;DHT22;42608;52.776;6.968;2022-12-24T02:12:39;9.10;99.90
56725;DHT22;42608;52.776;6.968;2022-12-24T02:15:05;9.10;99.90
56725;DHT22;42608;52.776;6.968;2022-12-24T02:17:39;9.10;99.90
56725;DHT22;42608;52.776;6.968;2022-12-24T02:38:33;9.10;99.90
56725;DHT22;42608;52.776;6.968;2022-12-24T02:41:23;9.10;99.90
56725;DHT22;42608;52.776;6.968;2022-12-24T02:43:47;9.10;99.90
56725;DHT22;42608;52.776;6.968;2022-12-24T02:46:32;9.10;99.90
56725;DHT22;42608;52.776;6.968;2022-12-24T02:48:58;9.10;99.90
56725;DHT22;42608;52.776;6.968;2022-12-24T02:51:24;9.10;99.90
56725;DHT22;42608;52.776;6.968;2022-12-24T02:53:49;9.10;99.90
56725;DHT22;42608;52.776;6.968;2022-12-24T03:04:06;9.10;99.90
56725;DHT22;42608;52.776;6.968;2022-12-24T03:09:11;9.10;99.90
56725;DHT22;42608;52.776;6.968;2022-12-24T03:11:37;9.10;99.90
56725;DHT22;42608;52.776;6.968;2022-12-24T03:14:06;9.10;99.90
56725;DHT22;42608;52.776;6.968;2022-12-24T03:16:32;9.10;99.90
56725;DHT22;42608;52.776;6.968;2022-12-24T03:18:57;9.20;99.90
56725;DHT22;42608;52.776;6.968;2022-12-24T03:21:32;9.20;99.90
56725;DHT22;42608;52.776;6.968;2022-12-24T03:23:58;9.20;99.90
56725;DHT22;42608;52.776;6.968;2022-12-24T03:26:24;9.20;99.90
56725;DHT22;42608;52.776;6.968;2022-12-24T03:28:51;9.20;99.90
56725;DHT22;42608;52.776;6.968;2022-12-24T03:31:16;9.20;99.90
56725;DHT22;42608;52.776;6.968;2022-12-24T03:33:43;9.20;99.90
56725;DHT22;42608;52.776;6.968;2022-12-24T03:36:09;9.20;99.90
56725;DHT22;42608;52.776;6.968;2022-12-24T03:38:35;9.20;99.90
56725;DHT22;42608;52.776;6.968;2022-12-24T03:41:01;9.20;99.90
56725;DHT22;42608;52.776;6.968;2022-12-24T03:43:26;9.20;99.90
56725;DHT22;42608;52.776;6.968;2022-12-24T03:45:52;9.20;99.90
56725;DHT22;42608;52.776;6.968;2022-12-24T03:48:17;9.20;99.90
56725;DHT22;42608;52.776;6.968;2022-12-24T03:50:43;9.20;99.90
56725;DHT22;42608;52.776;6.968;2022-12-24T03:53:09;9.20;99.90
56725;DHT22;42608;52.776;6.968;2022-12-24T03:55:34;9.20;99.90
56725;DHT22;42608;52.776;6.968;2022-12-24T03:58:00;9.20;99.90
56725;DHT22;42608;52.776;6.968;2022-12-24T04:00:26;9.20;99.90
56725;DHT22;42608;52.776;6.968;2022-12-24T04:02:52;9.20;99.90
56725;DHT22;42608;52.776;6.968;2022-12-24T04:05:18;9.20;99.90
56725;DHT22;42608;52.776;6.968;2022-12-24T04:07:44;9.20;99.90
56725;DHT22;42608;52.776;6.968;2022-12-24T04:10:10;9.20;99.90
56725;DHT22;42608;52.776;6.968;2022-12-24T04:12:36;9.20;99.90
56725;DHT22;42608;52.776;6.968;2022-12-24T04:15:02;9.20;99.90
56725;DHT22;42608;52.776;6.968;2022-12-24T04:17:28;9.20;99.90
56725;DHT22;42608;52.776;6.968;2022-12-24T04:19:53;9.20;99.90
56725;DHT22;42608;52.776;6.968;2022-12-24T04:22:19;9.20;99.90
56725;DHT22;42608;52.776;6.968;2022-12-24T04:24:45;9.20;99.90
56725;DHT22;42608;52.776;6.968;2022-12-24T04:27:12;9.20;99.90
56725;DHT22;42608;52.776;6.968;2022-12-24T04:29:37;9.20;99.90
56725;DHT22;42608;52.776;6.968;2022-12-24T04:32:03;9.20;99.90
56725;DHT22;42608;52.776;6.968;2022-12-24T04:34:29;9.20;99.90
56725;DHT22;42608;52.776;6.968;2022-12-24T04:36:54;9.20;99.90
56725;DHT22;42608;52.776;6.968;2022-12-24T04:39:20;9.30;99.90
56725;DHT22;42608;52.776;6.968;2022-12-24T04:41:45;9.20;99.90
56725;DHT22;42608;52.776;6.968;2022-12-24T04:44:11;9.20;99.90
56725;DHT22;42608;52.776;6.968;2022-12-24T04:46:37;9.30;99.90
56725;DHT22;42608;52.776;6.968;2022-12-24T04:49:02;9.30;99.90
56725;DHT22;42608;52.776;6.968;2022-12-24T04:51:28;9.30;99.90
56725;DHT22;42608;52.776;6.968;2022-12-24T04:53:54;9.20;99.90
56725;DHT22;42608;52.776;6.968;2022-12-24T04:56:21;9.20;99.90
56725;DHT22;42608;52.776;6.968;2022-12-24T04:58:47;9.30;99.90
56725;DHT22;42608;52.776;6.968;2022-12-24T05:01:14;9.20;99.90
56725;DHT22;42608;52.776;6.968;2022-12-24T05:03:41;9.20;99.90
56725;DHT22;42608;52.776;6.968;2022-12-24T05:06:08;9.20;99.90
56725;DHT22;42608;52.776;6.968;2022-12-24T05:08:34;9.20;99.90
56725;DHT22;42608;52.776;6.968;2022-12-24T05:11:00;9.20;99.90
56725;DHT22;42608;52.776;6.968;2022-12-24T05:13:26;9.20;99.90
56725;DHT22;42608;52.776;6.968;2022-12-24T05:15:52;9.20;99.90
56725;DHT22;42608;52.776;6.968;2022-12-24T05:18:18;9.20;99.90
56725;DHT22;42608;52.776;6.968;2022-12-24T05:20:44;9.20;99.90
56725;DHT22;42608;52.776;6.968;2022-12-24T05:23:17;9.20;99.90
56725;DHT22;42608;52.776;6.968;2022-12-24T05:26:02;9.20;99.90
56725;DHT22;42608;52.776;6.968;2022-12-24T05:28:46;9.20;99.90
56725;DHT22;42608;52.776;6.968;2022-12-24T05:31:12;9.20;99.90
56725;DHT22;42608;52.776;6.968;2022-12-24T05:33:38;9.20;99.90
56725;DHT22;42608;52.776;6.968;2022-12-24T05:36:03;9.20;99.90
56725;DHT22;42608;52.776;6.968;2022-12-24T05:38:29;9.20;99.90
56725;DHT22;42608;52.776;6.968;2022-12-24T05:40:55;9.20;99.90
56725;DHT22;42608;52.776;6.968;2022-12-24T05:43:20;9.20;99.90
56725;DHT22;42608;52.776;6.968;2022-12-24T05:45:46;9.20;99.90
56725;DHT22;42608;52.776;6.968;2022-12-24T05:48:11;9.20;99.90
56725;DHT22;42608;52.776;6.968;2022-12-24T05:50:40;9.20;99.90
56725;DHT22;42608;52.776;6.968;2022-12-24T05:53:06;9.20;99.90
56725;DHT22;42608;52.776;6.968;2022-12-24T05:55:31;9.20;99.90
56725;DHT22;42608;52.776;6.968;2022-12-24T05:57:57;9.20;99.90
56725;DHT22;42608;52.776;6.968;2022-12-24T06:00:23;9.20;99.90
56725;DHT22;42608;52.776;6.968;2022-12-24T06:02:48;9.20;99.90
56725;DHT22;42608;52.776;6.968;2022-12-24T06:05:14;9.20;99.90
56725;DHT22;42608;52.776;6.968;2022-12-24T06:07:40;9.10;99.90
56725;DHT22;42608;52.776;6.968;2022-12-24T06:10:05;9.10;99.90
56725;DHT22;42608;52.776;6.968;2022-12-24T06:12:31;9.10;99.90
56725;DHT22;42608;52.776;6.968;2022-12-24T06:14:57;9.20;99.90
56725;DHT22;42608;52.776;6.968;2022-12-24T06:17:22;9.10;99.90
56725;DHT22;42608;52.776;6.968;2022-12-24T06:19:48;9.10;99.90
56725;DHT22;42608;52.776;6.968;2022-12-24T06:22:13;9.10;99.90
56725;DHT22;42608;52.776;6.968;2022-12-24T06:24:39;9.10;99.90
56725;DHT22;42608;52.776;6.968;2022-12-24T06:27:05;9.10;99.90
56725;DHT22;42608;52.776;6.968;2022-12-24T06:29:30;9.10;99.90
56725;DHT22;42608;52.776;6.968;2022-12-24T06:31:56;9.10;99.90
56725;DHT22;42608;52.776;6.968;2022-12-24T06:34:21;9.10;99.90
56725;DHT22;42608;52.776;6.968;2022-12-24T06:36:47;9.10;99.90
56725;DHT22;42608;52.776;6.968;2022-12-24T06:39:13;9.10;99.90
56725;DHT22;42608;52.776;6.968;2022-12-24T06:41:38;9.10;99.90
56725;DHT22;42608;52.776;6.968;2022-12-24T06:44:04;9.10;99.90
56725;DHT22;42608;52.776;6.968;2022-12-24T06:46:29;9.10;99.90
56725;DHT22;42608;52.776;6.968;2022-12-24T06:48:55;9.10;99.90
56725;DHT22;42608;52.776;6.968;2022-12-24T06:51:21;9.10;99.90
56725;DHT22;42608;52.776;6.968;2022-12-24T06:53:47;9.10;99.90
56725;DHT22;42608;52.776;6.968;2022-12-24T06:56:14;9.10;99.90
56725;DHT22;42608;52.776;6.968;2022-12-24T06:58:41;9.00;99.90
56725;DHT22;42608;52.776;6.968;2022-12-24T07:01:08;9.00;99.90
56725;DHT22;42608;52.776;6.968;2022-12-24T07:03:34;9.10;99.90
56725;DHT22;42608;52.776;6.968;2022-12-24T07:06:00;9.00;99.90
56725;DHT22;42608;52.776;6.968;2022-12-24T07:08:26;9.00;99.90
56725;DHT22;42608;52.776;6.968;2022-12-24T07:10:52;9.00;99.90
56725;DHT22;42608;52.776;6.968;2022-12-24T07:13:18;9.00;99.90
56725;DHT22;42608;52.776;6.968;2022-12-24T07:15:44;9.00;99.90
56725;DHT22;42608;52.776;6.968;2022-12-24T07:18:09;8.90;99.90
56725;DHT22;42608;52.776;6.968;2022-12-24T07:20:36;9.00;99.90
56725;DHT22;42608;52.776;6.968;2022-12-24T07:23:02;9.00;99.90
56725;DHT22;42608;52.776;6.968;2022-12-24T07:25:27;9.00;99.90
56725;DHT22;42608;52.776;6.968;2022-12-24T07:27:53;9.00;99.90
56725;DHT22;42608;52.776;6.968;2022-12-24T07:30:18;8.90;99.90
56725;DHT22;42608;52.776;6.968;2022-12-24T07:32:44;9.00;99.90
56725;DHT22;42608;52.776;6.968;2022-12-24T07:35:09;8.90;99.90
56725;DHT22;42608;52.776;6.968;2022-12-24T07:37:35;8.90;99.90
56725;DHT22;42608;52.776;6.968;2022-12-24T07:40:00;8.90;99.90
56725;DHT22;42608;52.776;6.968;2022-12-24T07:42:26;8.90;99.90
56725;DHT22;42608;52.776;6.968;2022-12-24T07:44:52;8.90;99.90
56725;DHT22;42608;52.776;6.968;2022-12-24T07:47:17;8.90;99.90
56725;DHT22;42608;52.776;6.968;2022-12-24T07:49:43;8.90;99.90
56725;DHT22;42608;52.776;6.968;2022-12-24T07:52:09;8.80;99.90
56725;DHT22;42608;52.776;6.968;2022-12-24T07:54:34;8.90;99.90
56725;DHT22;42608;52.776;6.968;2022-12-24T07:57:00;8.80;99.90
56725;DHT22;42608;52.776;6.968;2022-12-24T07:59:26;8.80;99.90
56725;DHT22;42608;52.776;6.968;2022-12-24T08:01:51;8.80;99.90
56725;DHT22;42608;52.776;6.968;2022-12-24T08:04:17;8.90;99.90
56725;DHT22;42608;52.776;6.968;2022-12-24T08:06:42;8.80;99.90
56725;DHT22;42608;52.776;6.968;2022-12-24T08:09:08;8.80;99.90
56725;DHT22;42608;52.776;6.968;2022-12-24T08:11:33;8.80;99.90
56725;DHT22;42608;52.776;6.968;2022-12-24T08:13:59;8.80;99.90
56725;DHT22;42608;52.776;6.968;2022-12-24T08:16:24;8.80;99.90
56725;DHT22;42608;52.776;6.968;2022-12-24T08:18:50;8.80;99.90
56725;DHT22;42608;52.776;6.968;2022-12-24T08:21:16;8.80;99.90
56725;DHT22;42608;52.776;6.968;2022-12-24T08:23:41;8.80;99.90
56725;DHT22;42608;52.776;6.968;2022-12-24T08:26:07;8.80;99.90
56725;DHT22;42608;52.776;6.968;2022-12-24T08:28:33;8.90;99.90
56725;DHT22;42608;52.776;6.968;2022-12-24T08:30:59;8.90;99.90
56725;DHT22;42608;52.776;6.968;2022-12-24T08:33:24;8.90;99.90
56725;DHT22;42608;52.776;6.968;2022-12-24T08:35:51;8.90;99.90
56725;DHT22;42608;52.776;6.968;2022-12-24T08:38:17;8.90;99.90
56725;DHT22;42608;52.776;6.968;2022-12-24T08:40:42;8.90;99.90
56725;DHT22;42608;52.776;6.968;2022-12-24T08:43:08;8.90;99.90
56725;DHT22;42608;52.776;6.968;2022-12-24T08:45:34;9.00;99.90
56725;DHT22;42608;52.776;6.968;2022-12-24T08:48:00;9.00;99.90
56725;DHT22;42608;52.776;6.968;2022-12-24T08:50:25;9.00;99.90
56725;DHT22;42608;52.776;6.968;2022-12-24T08:52:52;9.00;99.90
56725;DHT22;42608;52.776;6.968;2022-12-24T08:55:18;9.10;99.90
56725;DHT22;42608;52.776;6.968;2022-12-24T08:57:44;9.10;99.90
56725;DHT22;42608;52.776;6.968;2022-12-24T09:00:10;9.10;99.90
56725;DHT22;42608;52.776;6.968;2022-12-24T09:02:35;9.10;99.90
56725;DHT22;42608;52.776;6.968;2022-12-24T09:05:01;9.10;99.90
56725;DHT22;42608;52.776;6.968;2022-12-24T09:07:27;9.10;99.90
56725;DHT22;42608;52.776;6.968;2022-12-24T09:09:52;9.20;99.90
56725;DHT22;42608;52.776;6.968;2022-12-24T09:12:18;9.20;99.90
56725;DHT22;42608;52.776;6.968;2022-12-24T09:14:43;9.20;99.90
56725;DHT22;42608;52.776;6.968;2022-12-24T09:17:09;9.20;99.90
56725;DHT22;42608;52.776;6.968;2022-12-24T09:19:34;9.30;99.90
56725;DHT22;42608;52.776;6.968;2022-12-24T09:22:00;9.30;99.90
56725;DHT22;42608;52.776;6.968;2022-12-24T09:24:25;9.30;99.90
56725;DHT22;42608;52.776;6.968;2022-12-24T09:26:51;9.30;99.90
56725;DHT22;42608;52.776;6.968;2022-12-24T09:29:17;9.30;99.90
56725;DHT22;42608;52.776;6.968;2022-12-24T09:31:42;9.30;99.90
56725;DHT22;42608;52.776;6.968;2022-12-24T09:34:08;9.40;99.90
56725;DHT22;42608;52.776;6.968;2022-12-24T09:36:34;9.40;99.90
56725;DHT22;42608;52.776;6.968;2022-12-24T09:38:59;9.40;99.90
56725;DHT22;42608;52.776;6.968;2022-12-24T09:41:32;9.40;99.90
56725;DHT22;42608;52.776;6.968;2022-12-24T09:44:07;9.40;99.90
56725;DHT22;42608;52.776;6.968;2022-12-24T09:46:38;9.50;99.90
56725;DHT22;42608;52.776;6.968;2022-12-24T09:49:05;9.40;99.90
56725;DHT22;42608;52.776;6.968;2022-12-24T09:51:41;9.50;99.90
56725;DHT22;42608;52.776;6.968;2022-12-24T09:54:24;9.50;99.90
56725;DHT22;42608;52.776;6.968;2022-12-24T09:56:51;9.50;99.90
56725;DHT22;42608;52.776;6.968;2022-12-24T09:59:22;9.50;99.90
56725;DHT22;42608;52.776;6.968;2022-12-24T10:01:49;9.50;99.90
56725;DHT22;42608;52.776;6.968;2022-12-24T10:04:17;9.60;99.90
56725;DHT22;42608;52.776;6.968;2022-12-24T10:06:50;9.50;99.90
56725;DHT22;42608;52.776;6.968;2022-12-24T10:12:07;9.60;99.90
56725;DHT22;42608;52.776;6.968;2022-12-24T10:24:38;9.70;99.90
56725;DHT22;42608;52.776;6.968;2022-12-24T10:27:12;9.70;99.90
56725;DHT22;42608;52.776;6.968;2022-12-24T10:29:48;9.60;99.90
56725;DHT22;42608;52.776;6.968;2022-12-24T10:32:24;9.60;99.90
56725;DHT22;42608;52.776;6.968;2022-12-24T10:34:52;9.60;99.90
56725;DHT22;42608;52.776;6.968;2022-12-24T10:37:22;9.60;99.90
56725;DHT22;42608;52.776;6.968;2022-12-24T10:39:48;9.60;99.90
56725;DHT22;42608;52.776;6.968;2022-12-24T10:42:14;9.60;99.90
56725;DHT22;42608;52.776;6.968;2022-12-24T10:44:40;9.60;99.90
56725;DHT22;42608;52.776;6.968;2022-12-24T10:47:06;9.60;99.90
56725;DHT22;42608;52.776;6.968;2022-12-24T10:49:39;9.60;99.90
56725;DHT22;42608;52.776;6.968;2022-12-24T10:52:10;9.60;99.90
56725;DHT22;42608;52.776;6.968;2022-12-24T10:54:37;9.60;99.90
56725;DHT22;42608;52.776;6.968;2022-12-24T10:57:24;9.60;99.90
56725;DHT22;42608;52.776;6.968;2022-12-24T10:59:51;9.60;99.90
56725;DHT22;42608;52.776;6.968;2022-12-24T11:04:49;9.60;99.90
56725;DHT22;42608;52.776;6.968;2022-12-24T11:07:20;9.60;99.90
56725;DHT22;42608;52.776;6.968;2022-12-24T11:09:53;9.60;99.90
56725;DHT22;42608;52.776;6.968;2022-12-24T11:12:21;9.60;99.90
56725;DHT22;42608;52.776;6.968;2022-12-24T11:14:47;9.60;99.90
56725;DHT22;42608;52.776;6.968;2022-12-24T11:17:18;9.60;99.90
56725;DHT22;42608;52.776;6.968;2022-12-24T11:19:46;9.60;99.90
56725;DHT22;42608;52.776;6.968;2022-12-24T11:22:17;9.70;99.90
56725;DHT22;42608;52.776;6.968;2022-12-24T11:24:43;9.60;99.90
56725;DHT22;42608;52.776;6.968;2022-12-24T11:29:46;9.60;99.90
56725;DHT22;42608;52.776;6.968;2022-12-24T11:32:16;9.70;99.90
56725;DHT22;42608;52.776;6.968;2022-12-24T11:34:42;9.70;99.90
56725;DHT22;42608;52.776;6.968;2022-12-24T11:37:09;9.70;99.90
56725;DHT22;42608;52.776;6.968;2022-12-24T11:39:39;9.70;99.90
56725;DHT22;42608;52.776;6.968;2022-12-24T11:42:05;9.70;99.90
56725;DHT22;42608;52.776;6.968;2022-12-24T11:44:31;9.80;99.90
56725;DHT22;42608;52.776;6.968;2022-12-24T11:46:57;9.80;99.90
56725;DHT22;42608;52.776;6.968;2022-12-24T11:54:33;9.80;99.90
56725;DHT22;42608;52.776;6.968;2022-12-24T11:57:01;9.90;99.90
56725;DHT22;42608;52.776;6.968;2022-12-24T11:59:30;9.90;99.90
56725;DHT22;42608;52.776;6.968;2022-12-24T12:04:34;9.90;99.90
56725;DHT22;42608;52.776;6.968;2022-12-24T12:07:03;9.90;99.90
56725;DHT22;42608;52.776;6.968;2022-12-24T12:09:37;9.90;99.90
56725;DHT22;42608;52.776;6.968;2022-12-24T12:12:05;10.00;99.90
56725;DHT22;42608;52.776;6.968;2022-12-24T12:14:42;9.90;99.90
56725;DHT22;42608;52.776;6.968;2022-12-24T12:17:13;10.00;99.90
56725;DHT22;42608;52.776;6.968;2022-12-24T12:20:03;10.00;99.90
56725;DHT22;42608;52.776;6.968;2022-12-24T12:22:36;10.00;99.90
56725;DHT22;42608;52.776;6.968;2022-12-24T12:25:03;10.00;99.90
56725;DHT22;42608;52.776;6.968;2022-12-24T12:29:56;10.00;99.90
56725;DHT22;42608;52.776;6.968;2022-12-24T12:35:00;10.00;99.90
56725;DHT22;42608;52.776;6.968;2022-12-24T12:37:33;10.00;99.90
56725;DHT22;42608;52.776;6.968;2022-12-24T12:39:59;10.00;99.90
56725;DHT22;42608;52.776;6.968;2022-12-24T12:47:39;10.00;99.90
56725;DHT22;42608;52.776;6.968;2022-12-24T12:52:53;10.00;99.90
56725;DHT22;42608;52.776;6.968;2022-12-24T12:57:48;10.00;99.90
56725;DHT22;42608;52.776;6.968;2022-12-24T13:00:18;10.00;99.90
56725;DHT22;42608;52.776;6.968;2022-12-24T13:18:32;10.10;99.90
56725;DHT22;42608;52.776;6.968;2022-12-24T13:21:03;10.00;99.90
56725;DHT22;42608;52.776;6.968;2022-12-24T13:23:28;10.00;99.90
56725;DHT22;42608;52.776;6.968;2022-12-24T13:25:55;10.10;99.90
56725;DHT22;42608;52.776;6.968;2022-12-24T13:30:48;10.10;99.90
56725;DHT22;42608;52.776;6.968;2022-12-24T13:35:59;10.10;99.90
56725;DHT22;42608;52.776;6.968;2022-12-24T13:38:29;10.10;99.90
56725;DHT22;42608;52.776;6.968;2022-12-24T13:40:55;10.10;99.90
56725;DHT22;42608;52.776;6.968;2022-12-24T13:49:11;10.10;99.90
56725;DHT22;42608;52.776;6.968;2022-12-24T13:51:37;10.10;99.90
56725;DHT22;42608;52.776;6.968;2022-12-24T13:54:02;10.10;99.90
56725;DHT22;42608;52.776;6.968;2022-12-24T13:56:28;10.00;99.90
56725;DHT22;42608;52.776;6.968;2022-12-24T13:59:08;10.00;99.90
56725;DHT22;42608;52.776;6.968;2022-12-24T14:01:35;9.90;99.90
56725;DHT22;42608;52.776;6.968;2022-12-24T14:04:03;9.90;99.90
56725;DHT22;42608;52.776;6.968;2022-12-24T14:06:39;9.90;99.90
56725;DHT22;42608;52.776;6.968;2022-12-24T14:14:26;9.80;99.90
56725;DHT22;42608;52.776;6.968;2022-12-24T14:16:53;9.70;99.90
56725;DHT22;42608;52.776;6.968;2022-12-24T14:19:24;9.70;99.90
56725;DHT22;42608;52.776;6.968;2022-12-24T14:22:03;9.70;99.90
56725;DHT22;42608;52.776;6.968;2022-12-24T14:24:36;9.70;99.90
56725;DHT22;42608;52.776;6.968;2022-12-24T14:27:23;9.70;99.90
56725;DHT22;42608;52.776;6.968;2022-12-24T14:29:51;9.60;99.90
56725;DHT22;42608;52.776;6.968;2022-12-24T14:32:17;9.60;99.90
56725;DHT22;42608;52.776;6.968;2022-12-24T14:34:43;9.60;99.90
56725;DHT22;42608;52.776;6.968;2022-12-24T14:37:09;9.60;99.90
56725;DHT22;42608;52.776;6.968;2022-12-24T14:39:39;9.50;99.90
56725;DHT22;42608;52.776;6.968;2022-12-24T14:47:21;9.50;99.90
56725;DHT22;42608;52.776;6.968;2022-12-24T14:54:47;9.50;99.90
56725;DHT22;42608;52.776;6.968;2022-12-24T14:57:20;9.40;99.90
56725;DHT22;42608;52.776;6.968;2022-12-24T14:59:47;9.40;99.90
56725;DHT22;42608;52.776;6.968;2022-12-24T15:02:21;9.40;99.90
56725;DHT22;42608;52.776;6.968;2022-12-24T15:07:31;9.40;99.90
56725;DHT22;42608;52.776;6.968;2022-12-24T15:09:57;9.50;99.90
56725;DHT22;42608;52.776;6.968;2022-12-24T15:12:23;9.50;99.90
56725;DHT22;42608;52.776;6.968;2022-12-24T15:14:49;9.40;99.90
56725;DHT22;42608;52.776;6.968;2022-12-24T15:17:14;9.50;99.90
56725;DHT22;42608;52.776;6.968;2022-12-24T15:19:41;9.50;99.90
56725;DHT22;42608;52.776;6.968;2022-12-24T15:22:11;9.50;99.90
56725;DHT22;42608;52.776;6.968;2022-12-24T15:24:46;9.50;99.90
56725;DHT22;42608;52.776;6.968;2022-12-24T15:27:16;9.50;99.90
56725;DHT22;42608;52.776;6.968;2022-12-24T15:29:43;9.50;99.90
56725;DHT22;42608;52.776;6.968;2022-12-24T15:32:10;9.40;99.90
56725;DHT22;42608;52.776;6.968;2022-12-24T15:34:38;9.40;99.90
56725;DHT22;42608;52.776;6.968;2022-12-24T15:39:29;9.40;99.90
56725;DHT22;42608;52.776;6.968;2022-12-24T15:41:55;9.40;99.90
56725;DHT22;42608;52.776;6.968;2022-12-24T15:44:56;9.40;99.90
56725;DHT22;42608;52.776;6.968;2022-12-24T15:47:25;9.30;99.90
56725;DHT22;42608;52.776;6.968;2022-12-24T15:49:51;9.20;99.90
56725;DHT22;42608;52.776;6.968;2022-12-24T15:52:18;9.20;99.90
56725;DHT22;42608;52.776;6.968;2022-12-24T15:54:48;9.20;99.90
56725;DHT22;42608;52.776;6.968;2022-12-24T15:57:20;9.20;99.90
56725;DHT22;42608;52.776;6.968;2022-12-24T15:59:53;9.20;99.90
56725;DHT22;42608;52.776;6.968;2022-12-24T16:07:41;9.10;99.90
56725;DHT22;42608;52.776;6.968;2022-12-24T16:10:26;9.10;99.90
56725;DHT22;42608;52.776;6.968;2022-12-24T16:12:51;9.10;99.90
56725;DHT22;42608;52.776;6.968;2022-12-24T16:15:17;9.00;99.90
56725;DHT22;42608;52.776;6.968;2022-12-24T16:17:46;9.00;99.90
56725;DHT22;42608;52.776;6.968;2022-12-24T16:20:15;9.00;99.90
56725;DHT22;42608;52.776;6.968;2022-12-24T16:22:44;9.00;99.90
56725;DHT22;42608;52.776;6.968;2022-12-24T16:27:42;8.90;99.90
56725;DHT22;42608;52.776;6.968;2022-12-24T16:30:09;8.80;99.90
56725;DHT22;42608;52.776;6.968;2022-12-24T16:32:35;8.80;99.90
56725;DHT22;42608;52.776;6.968;2022-12-24T16:35:03;8.80;99.90
56725;DHT22;42608;52.776;6.968;2022-12-24T16:37:31;8.70;99.90
56725;DHT22;42608;52.776;6.968;2022-12-24T16:39:56;8.70;99.90
56725;DHT22;42608;52.776;6.968;2022-12-24T16:42:23;8.70;99.90
56725;DHT22;42608;52.776;6.968;2022-12-24T16:45:07;8.70;99.90
56725;DHT22;42608;52.776;6.968;2022-12-24T16:47:34;8.60;99.90
56725;DHT22;42608;52.776;6.968;2022-12-24T16:50:01;8.60;99.90
56725;DHT22;42608;52.776;6.968;2022-12-24T16:52:28;8.60;99.90
56725;DHT22;42608;52.776;6.968;2022-12-24T16:54:54;8.60;99.90
56725;DHT22;42608;52.776;6.968;2022-12-24T16:57:21;8.60;99.90
56725;DHT22;42608;52.776;6.968;2022-12-24T16:59:47;8.60;99.90
56725;DHT22;42608;52.776;6.968;2022-12-24T17:02:14;8.60;99.90
56725;DHT22;42608;52.776;6.968;2022-12-24T17:04:41;8.50;99.90
56725;DHT22;42608;52.776;6.968;2022-12-24T17:07:07;8.50;99.90
56725;DHT22;42608;52.776;6.968;2022-12-24T17:09:33;8.50;99.90
56725;DHT22;42608;52.776;6.968;2022-12-24T17:11:59;8.40;99.90
56725;DHT22;42608;52.776;6.968;2022-12-24T17:14:24;8.40;99.90
56725;DHT22;42608;52.776;6.968;2022-12-24T17:16:50;8.40;99.90
56725;DHT22;42608;52.776;6.968;2022-12-24T17:19:16;8.30;99.90
56725;DHT22;42608;52.776;6.968;2022-12-24T17:21:42;8.30;99.90
56725;DHT22;42608;52.776;6.968;2022-12-24T17:24:07;8.30;99.90
56725;DHT22;42608;52.776;6.968;2022-12-24T17:26:33;8.20;99.90
56725;DHT22;42608;52.776;6.968;2022-12-24T17:28:59;8.20;99.90
56725;DHT22;42608;52.776;6.968;2022-12-24T17:31:28;8.20;99.90
56725;DHT22;42608;52.776;6.968;2022-12-24T17:33:53;8.10;99.90
56725;DHT22;42608;52.776;6.968;2022-12-24T17:36:19;8.10;99.90
56725;DHT22;42608;52.776;6.968;2022-12-24T17:38:45;8.10;99.90
56725;DHT22;42608;52.776;6.968;2022-12-24T17:41:11;8.00;99.90
56725;DHT22;42608;52.776;6.968;2022-12-24T17:43:37;8.00;99.90
56725;DHT22;42608;52.776;6.968;2022-12-24T17:46:04;7.90;99.90
56725;DHT22;42608;52.776;6.968;2022-12-24T17:48:30;7.90;99.90
56725;DHT22;42608;52.776;6.968;2022-12-24T17:50:56;7.90;99.90
56725;DHT22;42608;52.776;6.968;2022-12-24T17:53:21;7.90;99.90
56725;DHT22;42608;52.776;6.968;2022-12-24T17:55:47;7.80;99.90